createdAt,value
2022-07-30T00:01:44.775Z,77.07
2022-07-30T00:04:11.424Z,76.96
2022-07-30T00:06:38.065Z,78.74
2022-07-30T00:09:04.820Z,77.68
2022-07-30T00:11:31.519Z,79.65
2022-07-30T00:13:58.208Z,80.57
2022-07-30T00:16:25.313Z,79.58
2022-07-30T00:18:52.136Z,78.72
2022-07-30T00:21:34.692Z,78.71
2022-07-30T00:24:06.404Z,78.92
2022-07-30T00:26:33.099Z,79.40
2022-07-30T00:28:59.953Z,79.28
2022-07-30T00:31:28.649Z,77.39
2022-07-30T00:33:55.682Z,77.18
2022-07-30T00:36:22.534Z,77.34
2022-07-30T00:38:49.536Z,77.36
2022-07-30T00:41:17.006Z,79.63
2022-07-30T00:43:44.458Z,78.70
2022-07-30T00:46:11.954Z,77.28
2022-07-30T00:48:39.702Z,78.58
2022-07-30T00:51:10.258Z,77.53
2022-07-30T00:53:51.021Z,76.40
2022-07-30T00:56:19.797Z,75.77
2022-07-30T00:58:46.627Z,76.75
2022-07-30T01:01:23.791Z,75.95
2022-07-30T01:03:58.981Z,74.96
2022-07-30T01:06:28.776Z,75.46
2022-07-30T01:08:56.331Z,76.23
2022-07-30T01:11:38.241Z,76.38
2022-07-30T01:14:09.275Z,75.91
2022-07-30T01:16:40.878Z,75.69
2022-07-30T01:19:15.672Z,75.27
2022-07-30T01:22:02.494Z,74.95
2022-07-30T01:24:41.046Z,75.87
2022-07-30T01:27:33.869Z,76.33
2022-07-30T01:30:41.017Z,75.98
2022-07-30T01:33:16.380Z,76.19
2022-07-30T01:36:14.101Z,77.68
2022-07-30T01:39:03.654Z,78.07
2022-07-30T01:41:31.765Z,78.22
2022-07-30T01:43:59.127Z,79.21
2022-07-30T01:46:27.655Z,79.46
2022-07-30T01:48:57.768Z,79.68
2022-07-30T01:51:26.821Z,78.47
2022-07-30T01:54:09.704Z,78.60
2022-07-30T01:56:37.746Z,79.48
2022-07-30T01:59:07.843Z,77.95
2022-07-30T02:01:35.462Z,77.01
2022-07-30T02:04:03.623Z,77.20
2022-07-30T02:06:37.411Z,77.19
2022-07-30T02:09:11.140Z,77.03
2022-07-30T02:11:47.567Z,75.74
2022-07-30T02:14:20.683Z,74.82
2022-07-30T02:16:56.041Z,73.60
2022-07-30T02:19:32.568Z,75.02
2022-07-30T02:22:06.907Z,75.25
2022-07-30T02:24:37.128Z,74.63
2022-07-30T02:27:08.456Z,74.31
2022-07-30T02:29:37.998Z,75.33
2022-07-30T02:32:10.812Z,75.33
2022-07-30T02:34:41.404Z,75.36
2022-07-30T02:37:10.862Z,74.95
2022-07-30T02:39:39.411Z,75.96
2022-07-30T02:42:07.570Z,75.97
2022-07-30T02:44:37.276Z,75.92
2022-07-30T02:47:06.068Z,75.98
2022-07-30T02:49:52.378Z,77.22
2022-07-30T02:52:19.927Z,78.02
2022-07-30T02:54:49.276Z,76.82
2022-07-30T02:57:19.668Z,77.94
2022-07-30T02:59:48.442Z,76.25
2022-07-30T03:02:15.992Z,75.42
2022-07-30T03:04:44.082Z,75.87
2022-07-30T03:07:16.968Z,76.37
2022-07-30T03:09:51.437Z,76.44
2022-07-30T03:12:20.006Z,76.26
2022-07-30T03:14:46.650Z,76.80
2022-07-30T03:17:18.234Z,76.42
2022-07-30T03:19:48.030Z,77.46
2022-07-30T03:22:17.329Z,76.41
2022-07-30T03:24:47.140Z,74.62
2022-07-30T03:27:16.197Z,74.63
2022-07-30T03:29:44.718Z,75.78
2022-07-30T03:32:13.889Z,74.85
2022-07-30T03:34:43.789Z,75.02
2022-07-30T03:37:11.415Z,74.49
2022-07-30T03:39:39.332Z,74.14
2022-07-30T03:42:07.956Z,74.65
2022-07-30T03:44:36.243Z,75.28
2022-07-30T03:47:05.766Z,74.47
2022-07-30T03:49:38.299Z,74.70
2022-07-30T03:52:06.400Z,73.96
2022-07-30T03:54:34.987Z,72.69
2022-07-30T03:57:30.865Z,73.46
2022-07-30T03:59:58.561Z,73.74
2022-07-30T04:02:26.184Z,74.36
2022-07-30T04:05:15.054Z,73.74
2022-07-30T04:07:45.084Z,73.58
2022-07-30T04:10:14.315Z,73.80
2022-07-30T04:13:07.873Z,74.43
2022-07-30T04:16:37.717Z,75.99
2022-07-30T04:18:38.841Z,76.46
2022-07-30T04:21:16.024Z,77.30
2022-07-30T04:24:03.799Z,78.10
2022-07-30T04:26:35.859Z,78.73
2022-07-30T04:29:06.814Z,78.79
2022-07-30T04:31:34.152Z,77.60
2022-07-30T04:34:27.573Z,77.24
2022-07-30T04:36:54.466Z,77.41
2022-07-30T04:39:21.255Z,77.02
2022-07-30T04:41:49.650Z,78.14
2022-07-30T04:44:37.279Z,79.38
2022-07-30T04:47:25.035Z,77.92
2022-07-30T04:50:13.777Z,80.21
2022-07-30T04:52:43.365Z,79.40
2022-07-30T04:55:13.309Z,77.52
2022-07-30T04:57:42.361Z,76.84
2022-07-30T05:00:10.152Z,75.56
2022-07-30T05:02:41.407Z,76.12
2022-07-30T05:05:12.794Z,76.66
2022-07-30T05:07:42.194Z,75.83
2022-07-30T05:10:12.236Z,76.89
2022-07-30T05:12:43.714Z,76.97
2022-07-30T05:15:11.594Z,77.96
2022-07-30T05:17:39.353Z,78.80
2022-07-30T05:20:10.154Z,79.04
2022-07-30T05:22:55.965Z,78.62
2022-07-30T05:25:24.262Z,77.98
2022-07-30T05:27:53.663Z,78.68
2022-07-30T05:30:26.152Z,78.15
2022-07-30T05:32:57.305Z,79.24
2022-07-30T05:35:24.769Z,79.57
2022-07-30T05:37:51.447Z,80.22
2022-07-30T05:40:19.786Z,82.37
2022-07-30T05:43:05.118Z,82.36
2022-07-30T05:45:33.423Z,82.96
2022-07-30T05:48:00.281Z,84.49
2022-07-30T05:50:26.983Z,84.53
2022-07-30T05:52:53.702Z,84.34
2022-07-30T05:55:49.600Z,84.44
2022-07-30T05:58:36.710Z,83.94
2022-07-30T06:01:03.703Z,84.63
2022-07-30T06:03:31.585Z,85.56
2022-07-30T06:06:22.456Z,84.80
2022-07-30T06:08:49.926Z,84.45
2022-07-30T06:11:17.108Z,84.49
2022-07-30T06:13:44.848Z,85.33
2022-07-30T06:16:11.741Z,86.85
2022-07-30T06:18:38.591Z,87.23
2022-07-30T06:21:13.583Z,84.70
2022-07-30T06:24:09.778Z,83.02
2022-07-30T06:26:40.467Z,82.93
2022-07-30T06:29:07.839Z,83.58
2022-07-30T06:31:35.674Z,82.10
2022-07-30T06:34:02.465Z,81.00
2022-07-30T06:36:34.660Z,80.41
2022-07-30T06:39:06.240Z,82.68
2022-07-30T06:41:59.052Z,82.40
2022-07-30T06:44:48.833Z,82.81
2022-07-30T06:47:24.188Z,81.74
2022-07-30T06:49:50.857Z,81.80
2022-07-30T06:52:18.857Z,82.79
2022-07-30T06:54:50.434Z,82.49
2022-07-30T06:57:40.490Z,81.05
2022-07-30T07:00:24.330Z,81.14
2022-07-30T07:02:51.277Z,82.78
2022-07-30T07:05:25.040Z,82.00
2022-07-30T07:07:59.217Z,82.81
2022-07-30T07:10:32.293Z,82.53
2022-07-30T07:13:19.276Z,81.49
2022-07-30T07:15:46.127Z,79.42
2022-07-30T07:18:18.288Z,80.30
2022-07-30T07:20:59.722Z,79.65
2022-07-30T07:23:26.427Z,78.68
2022-07-30T07:26:17.204Z,80.15
2022-07-30T07:28:43.907Z,81.11
2022-07-30T07:31:11.058Z,81.79
2022-07-30T07:33:38.683Z,78.67
2022-07-30T07:36:05.596Z,78.92
2022-07-30T07:38:32.477Z,78.81
2022-07-30T07:40:59.707Z,79.31
2022-07-30T07:43:27.611Z,80.01
2022-07-30T07:45:58.025Z,79.59
2022-07-30T07:48:27.734Z,77.83
2022-07-30T07:51:00.546Z,79.28
2022-07-30T07:53:30.817Z,77.61
2022-07-30T07:55:58.054Z,77.92
2022-07-30T07:58:26.855Z,74.95
2022-07-30T08:00:57.736Z,74.97
2022-07-30T08:03:43.960Z,72.26
2022-07-30T08:06:30.725Z,73.97
2022-07-30T08:09:23.595Z,73.10
2022-07-30T08:12:05.616Z,73.60
2022-07-30T08:14:52.190Z,74.57
2022-07-30T08:17:46.280Z,75.69
2022-07-30T08:20:22.705Z,74.91
2022-07-30T08:22:49.501Z,75.75
2022-07-30T08:25:21.806Z,75.70
2022-07-30T08:27:53.142Z,76.44
2022-07-30T08:30:20.482Z,77.93
2022-07-30T08:32:47.217Z,77.89
2022-07-30T08:35:13.865Z,79.70
2022-07-30T08:37:40.815Z,79.04
2022-07-30T08:40:08.251Z,76.13
2022-07-30T08:42:38.920Z,75.15
2022-07-30T08:45:07.358Z,74.15
2022-07-30T08:47:34.531Z,71.92
2022-07-30T08:50:03.846Z,73.45
2022-07-30T08:52:35.337Z,72.22
2022-07-30T08:55:02.550Z,71.49
2022-07-30T08:57:30.364Z,70.07
2022-07-30T09:00:00.801Z,68.42
2022-07-30T09:02:31.438Z,69.08
2022-07-30T09:05:14.091Z,67.40
2022-07-30T09:07:41.554Z,69.95
2022-07-30T09:10:13.482Z,70.41
2022-07-30T09:12:42.506Z,64.89
2022-07-30T09:15:17.289Z,67.58
2022-07-30T09:17:56.981Z,65.66
2022-07-30T09:20:34.608Z,65.55
2022-07-30T09:23:06.958Z,64.64
2022-07-30T09:25:52.882Z,66.04
2022-07-30T09:28:38.179Z,66.67
2022-07-30T09:31:14.457Z,65.35
2022-07-30T09:33:59.971Z,63.38
2022-07-30T09:36:42.066Z,60.50
2022-07-30T09:39:37.274Z,62.03
2022-07-30T09:42:27.099Z,60.60
2022-07-30T09:45:08.367Z,60.98
2022-07-30T09:47:45.507Z,62.71
2022-07-30T09:50:30.344Z,61.93
2022-07-30T09:53:08.753Z,61.80
2022-07-30T09:55:41.221Z,62.34
2022-07-30T09:58:08.938Z,60.37
2022-07-30T10:00:36.884Z,61.21
2022-07-30T10:03:33.750Z,62.81
2022-07-30T10:06:35.091Z,63.39
2022-07-30T10:09:14.320Z,63.64
2022-07-30T10:11:46.851Z,61.99
2022-07-30T10:14:14.247Z,61.85
2022-07-30T10:16:41.303Z,63.22
2022-07-30T10:19:13.723Z,62.19
2022-07-30T10:21:57.140Z,61.14
2022-07-30T10:24:42.886Z,63.54
2022-07-30T10:27:29.022Z,62.21
2022-07-30T10:30:29.353Z,60.04
2022-07-30T10:32:58.374Z,56.92
2022-07-30T10:35:34.590Z,57.50
2022-07-30T10:38:13.650Z,55.98
2022-07-30T10:40:54.604Z,60.93
2022-07-30T10:43:36.067Z,57.60
2022-07-30T10:46:27.079Z,53.57
2022-07-30T10:49:19.026Z,52.51
2022-07-30T10:51:54.618Z,51.43
2022-07-30T10:54:44.139Z,54.73
2022-07-30T10:57:32.649Z,53.82
2022-07-30T11:00:17.853Z,52.60
2022-07-30T11:03:18.036Z,51.74
2022-07-30T11:06:10.067Z,51.25
2022-07-30T11:08:50.765Z,51.28
2022-07-30T11:11:59.241Z,52.05
2022-07-30T11:14:22.959Z,54.49
2022-07-30T11:16:54.574Z,53.12
2022-07-30T11:19:55.638Z,53.31
2022-07-30T11:22:33.215Z,54.78
2022-07-30T11:25:17.348Z,54.11
2022-07-30T11:27:49.215Z,49.87
2022-07-30T11:30:17.413Z,50.02
2022-07-30T11:32:48.657Z,51.77
2022-07-30T11:35:23.545Z,51.21
2022-07-30T11:38:12.876Z,51.08
2022-07-30T11:41:02.031Z,50.27
2022-07-30T11:43:36.095Z,51.74
2022-07-30T11:46:28.815Z,49.40
2022-07-30T11:49:27.147Z,52.30
2022-07-30T11:52:01.421Z,51.61
2022-07-30T11:54:59.242Z,52.61
2022-07-30T11:57:44.193Z,53.16
2022-07-30T12:00:23.049Z,51.41
2022-07-30T12:05:27.339Z,49.01
2022-07-30T12:08:00.243Z,50.56
2022-07-30T12:10:27.670Z,49.04
2022-07-30T12:13:15.688Z,51.64
2022-07-30T12:15:46.189Z,56.06
2022-07-30T12:18:29.485Z,61.99
2022-07-30T12:20:59.372Z,66.75
2022-07-30T12:23:26.930Z,70.21
2022-07-30T12:25:53.638Z,73.20
2022-07-30T12:28:25.679Z,77.23
2022-07-30T12:30:54.665Z,79.61
2022-07-30T12:33:21.850Z,79.12
2022-07-30T12:35:49.933Z,78.50
2022-07-30T12:38:17.569Z,77.24
2022-07-30T12:41:10.865Z,77.98
2022-07-30T12:43:52.592Z,78.55
2022-07-30T12:46:19.252Z,75.58
2022-07-30T12:49:21.096Z,73.68
2022-07-30T12:51:57.452Z,70.98
2022-07-30T12:54:27.529Z,69.72
2022-07-30T12:57:02.409Z,68.67
2022-07-30T12:59:35.835Z,68.61
2022-07-30T13:02:03.047Z,67.29
2022-07-30T13:04:30.054Z,67.65
2022-07-30T13:07:23.227Z,67.63
2022-07-30T13:10:06.710Z,68.24
2022-07-30T13:12:40.874Z,69.51
2022-07-30T13:15:27.846Z,69.41
2022-07-30T13:17:54.835Z,71.79
2022-07-30T13:20:21.669Z,73.28
2022-07-30T13:22:48.301Z,72.38
2022-07-30T13:25:14.909Z,71.80
2022-07-30T13:27:41.544Z,72.03
2022-07-30T13:30:08.869Z,70.81
2022-07-30T13:32:35.776Z,73.32
2022-07-30T13:35:02.376Z,71.62
2022-07-30T13:37:37.898Z,71.98
2022-07-30T13:40:07.073Z,72.07
2022-07-30T13:42:33.723Z,71.44
2022-07-30T13:45:00.667Z,73.25
2022-07-30T13:47:27.253Z,72.60
2022-07-30T13:49:53.911Z,73.46
2022-07-30T13:52:20.472Z,75.02
2022-07-30T13:54:47.232Z,75.52
2022-07-30T13:57:13.963Z,74.04
2022-07-30T13:59:40.609Z,74.48
2022-07-30T14:02:07.282Z,73.80
2022-07-30T14:04:33.988Z,73.52
2022-07-30T14:07:00.989Z,72.09
2022-07-30T14:09:28.038Z,74.18
2022-07-30T14:11:54.662Z,73.50
2022-07-30T14:14:21.425Z,71.95
2022-07-30T14:16:49.923Z,71.80
2022-07-30T14:19:22.979Z,70.61
2022-07-30T14:21:52.717Z,71.06
2022-07-30T14:24:20.665Z,71.89
2022-07-30T14:26:47.869Z,69.91
2022-07-30T14:29:14.711Z,69.02
2022-07-30T14:31:41.371Z,70.24
2022-07-30T14:34:08.101Z,71.54
2022-07-30T14:36:35.075Z,72.89
2022-07-30T14:39:01.630Z,72.92
2022-07-30T14:41:28.553Z,75.32
2022-07-30T14:43:55.516Z,74.08
2022-07-30T14:46:23.149Z,74.61
2022-07-30T14:48:50.179Z,73.39
2022-07-30T14:51:21.907Z,72.85
2022-07-30T14:53:50.888Z,72.28
2022-07-30T14:56:17.725Z,72.41
2022-07-30T14:58:45.049Z,72.14
2022-07-30T15:01:16.345Z,72.26
2022-07-30T15:03:47.282Z,71.46
2022-07-30T15:06:14.106Z,71.59
2022-07-30T15:08:42.180Z,72.63
2022-07-30T15:11:08.866Z,73.28
2022-07-30T15:13:36.533Z,73.94
2022-07-30T15:16:03.164Z,72.51
2022-07-30T15:18:29.873Z,70.73
2022-07-30T15:20:56.469Z,71.62
2022-07-30T15:23:23.111Z,71.03
2022-07-30T15:25:49.756Z,70.48
2022-07-30T15:28:19.427Z,69.36
2022-07-30T15:30:46.400Z,70.36
2022-07-30T15:33:13.056Z,71.39
2022-07-30T15:35:39.684Z,70.93
2022-07-30T15:38:06.529Z,70.76
2022-07-30T15:40:33.185Z,70.98
2022-07-30T15:43:02.070Z,72.63
2022-07-30T15:45:50.998Z,73.40
2022-07-30T15:48:26.684Z,75.88
2022-07-30T15:51:04.606Z,74.15
2022-07-30T15:53:32.025Z,73.79
2022-07-30T15:55:59.835Z,72.62
2022-07-30T15:58:26.713Z,73.05
2022-07-30T16:00:53.374Z,75.64
2022-07-30T16:03:20.211Z,71.56
2022-07-30T16:05:51.090Z,70.70
2022-07-30T16:08:22.607Z,70.19
2022-07-30T16:10:51.118Z,71.74
2022-07-30T16:13:23.026Z,72.42
2022-07-30T16:15:50.793Z,70.92
2022-07-30T16:18:17.518Z,69.44
2022-07-30T16:20:44.137Z,69.35
2022-07-30T16:23:15.914Z,68.52
2022-07-30T16:25:44.824Z,67.64
2022-07-30T16:28:11.355Z,67.18
2022-07-30T16:30:50.557Z,66.43
2022-07-30T16:33:19.498Z,67.13
2022-07-30T16:35:49.450Z,66.55
2022-07-30T16:38:21.069Z,66.24
2022-07-30T16:40:47.719Z,68.19
2022-07-30T16:43:15.659Z,68.44
2022-07-30T16:45:43.379Z,68.93
2022-07-30T16:48:10.484Z,69.71
2022-07-30T16:50:37.872Z,69.29
2022-07-30T16:53:04.497Z,71.22
2022-07-30T16:55:31.116Z,71.30
2022-07-30T16:57:58.262Z,69.86
2022-07-30T17:00:25.040Z,69.05
2022-07-30T17:02:51.939Z,67.35
2022-07-30T17:05:19.012Z,66.18
2022-07-30T17:07:45.913Z,66.79
2022-07-30T17:10:12.446Z,66.71
2022-07-30T17:12:40.156Z,66.13
2022-07-30T17:15:07.402Z,64.07
2022-07-30T17:17:34.033Z,64.02
2022-07-30T17:20:00.619Z,65.12
2022-07-30T17:22:27.983Z,65.33
2022-07-30T17:24:54.658Z,65.11
2022-07-30T17:27:21.677Z,65.66
2022-07-30T17:29:50.274Z,65.09
2022-07-30T17:32:19.117Z,64.43
2022-07-30T17:34:46.407Z,63.93
2022-07-30T17:37:13.161Z,66.17
2022-07-30T17:40:19.846Z,67.61
2022-07-30T17:42:26.516Z,66.72
2022-07-30T17:44:53.115Z,65.63
2022-07-30T17:47:19.711Z,66.79
2022-07-30T17:49:46.476Z,65.25
2022-07-30T17:52:13.165Z,65.29
2022-07-30T17:54:40.141Z,65.84
2022-07-30T17:57:07.074Z,66.22
2022-07-30T17:59:33.747Z,66.31
2022-07-30T18:02:00.766Z,66.81
2022-07-30T18:04:27.746Z,66.20
2022-07-30T18:06:54.474Z,65.77
2022-07-30T18:09:21.549Z,65.42
2022-07-30T18:11:48.316Z,65.21
2022-07-30T18:14:15.353Z,64.25
2022-07-30T18:16:42.050Z,63.98
2022-07-30T18:19:08.714Z,63.99
2022-07-30T18:21:49.609Z,64.06
2022-07-30T18:24:16.183Z,63.67
2022-07-30T18:26:44.474Z,65.96
2022-07-30T18:29:14.127Z,65.54
2022-07-30T18:31:41.101Z,66.17
2022-07-30T18:34:07.894Z,65.95
2022-07-30T18:36:34.615Z,66.22
2022-07-30T18:39:01.291Z,66.60
2022-07-30T18:41:28.266Z,65.95
2022-07-30T18:43:55.064Z,67.76
2022-07-30T18:46:24.134Z,68.65
2022-07-30T18:48:50.832Z,67.57
2022-07-30T18:51:17.509Z,67.40
2022-07-30T18:53:44.689Z,67.56
2022-07-30T18:56:11.487Z,68.49
2022-07-30T18:58:38.520Z,67.89
2022-07-30T19:01:05.878Z,69.58
2022-07-30T19:03:32.897Z,71.04
2022-07-30T19:05:59.570Z,72.02
2022-07-30T19:08:26.200Z,72.59
2022-07-30T19:10:52.934Z,72.70
2022-07-30T19:13:19.521Z,71.58
2022-07-30T19:15:46.431Z,71.21
2022-07-30T19:18:13.007Z,70.95
2022-07-30T19:20:39.879Z,71.41
2022-07-30T19:23:10.664Z,72.04
2022-07-30T19:25:37.515Z,72.46
2022-07-30T19:28:05.009Z,73.04
2022-07-30T19:30:32.717Z,73.03
2022-07-30T19:33:12.640Z,73.31
2022-07-30T19:35:41.953Z,73.55
2022-07-30T19:38:14.315Z,73.34
2022-07-30T19:40:48.903Z,73.45
2022-07-30T19:43:17.879Z,73.85
2022-07-30T19:45:51.320Z,73.35
2022-07-30T19:48:28.917Z,73.61
2022-07-30T19:51:01.799Z,73.38
2022-07-30T19:53:34.708Z,74.17
2022-07-30T19:58:54.816Z,72.43
2022-07-30T20:01:24.085Z,71.96
2022-07-30T20:04:07.278Z,72.60
2022-07-30T20:06:34.002Z,73.28
2022-07-30T20:09:00.790Z,74.00
2022-07-30T20:11:35.024Z,74.12
2022-07-30T20:14:23.026Z,74.13
2022-07-30T20:16:50.765Z,74.40
2022-07-30T20:19:27.669Z,74.41
2022-07-30T20:22:02.888Z,74.50
2022-07-30T20:24:29.505Z,74.19
2022-07-30T20:26:56.206Z,74.39
2022-07-30T20:29:28.364Z,74.46
2022-07-30T20:32:05.772Z,74.15
2022-07-30T20:34:43.188Z,74.51
2022-07-30T20:37:22.254Z,74.49
2022-07-30T20:39:50.987Z,74.48
2022-07-30T20:42:18.529Z,74.38
2022-07-30T20:44:50.843Z,74.56
2022-07-30T20:47:34.579Z,74.43
2022-07-30T20:50:16.038Z,74.66
2022-07-30T20:52:46.831Z,74.82
2022-07-30T20:55:16.145Z,74.87
2022-07-30T21:00:31.215Z,74.76
2022-07-30T21:02:57.794Z,74.49
2022-07-30T21:05:30.340Z,74.23
2022-07-30T21:08:09.485Z,74.01
2022-07-30T21:11:14.662Z,74.17
2022-07-30T21:13:45.493Z,74.16
2022-07-30T21:16:16.354Z,74.16
2022-07-30T21:18:50.366Z,74.07
2022-07-30T21:21:38.349Z,73.85
2022-07-30T21:24:21.152Z,73.63
2022-07-30T21:26:51.656Z,73.78
2022-07-30T21:29:21.018Z,73.52
2022-07-30T21:31:58.075Z,73.43
2022-07-30T21:34:40.423Z,73.60
2022-07-30T21:37:09.625Z,73.53
2022-07-30T21:39:46.093Z,73.84
2022-07-30T21:42:13.906Z,73.46
2022-07-30T21:44:43.330Z,73.34
2022-07-30T21:47:14.623Z,73.28
2022-07-30T21:53:29.795Z,73.35
2022-07-30T21:56:30.356Z,73.56
2022-07-30T21:58:57.642Z,74.06
2022-07-30T22:01:24.209Z,73.49
2022-07-30T22:04:01.073Z,73.05
2022-07-30T22:06:41.915Z,72.94
2022-07-30T22:09:19.610Z,72.93
2022-07-30T22:12:02.101Z,72.75
2022-07-30T22:14:33.915Z,72.66
2022-07-30T22:17:01.446Z,72.78
2022-07-30T22:19:31.297Z,72.73
2022-07-30T22:21:58.504Z,72.91
2022-07-30T22:24:31.393Z,72.93
2022-07-30T22:27:10.710Z,73.10
2022-07-30T22:29:42.606Z,72.94
2022-07-30T22:32:09.562Z,72.65
2022-07-30T22:34:36.306Z,72.60
2022-07-30T22:37:02.937Z,72.79
2022-07-30T22:39:32.192Z,73.04
2022-07-30T22:42:16.842Z,72.64
2022-07-30T22:44:45.869Z,72.68
2022-07-30T22:47:18.849Z,72.97
2022-07-30T22:52:39.357Z,72.72
2022-07-30T22:55:09.111Z,72.67
2022-07-30T22:57:54.369Z,72.66
2022-07-30T23:00:28.193Z,72.82
2022-07-30T23:02:56.229Z,72.92
2022-07-30T23:05:22.973Z,72.83
2022-07-30T23:07:50.189Z,73.03
2022-07-30T23:10:20.555Z,72.90
2022-07-30T23:12:26.542Z,75.08
2022-07-30T23:12:30.541Z,72.80
2022-07-30T23:12:31.100Z,74.25
2022-07-30T23:12:51.739Z,73.14
2022-07-30T23:15:20.503Z,73.21
2022-07-30T23:17:48.019Z,73.17
2022-07-30T23:20:18.507Z,73.46
2022-07-30T23:22:45.956Z,73.00
2022-07-30T23:25:13.881Z,73.13
2022-07-30T23:27:41.294Z,73.20
2022-07-30T23:30:09.984Z,73.43
2022-07-30T23:32:37.001Z,73.24
2022-07-30T23:35:04.674Z,73.16
2022-07-30T23:37:47.879Z,73.51
2022-07-30T23:40:17.949Z,73.28
2022-07-30T23:42:44.649Z,72.91
2022-07-30T23:45:11.366Z,72.99
2022-07-30T23:48:00.526Z,73.08
2022-07-30T23:50:24.963Z,72.97
2022-07-30T23:52:51.710Z,73.18
2022-07-30T23:55:18.458Z,73.25
2022-07-30T23:57:45.101Z,73.46
